createdAt,value
2023-03-06T00:01:19.270Z,60.75
2023-03-06T00:03:48.409Z,61.18
2023-03-06T00:06:17.397Z,61.95
2023-03-06T00:08:46.382Z,70.97
2023-03-06T00:11:15.645Z,76.69
2023-03-06T00:13:44.544Z,65.72
2023-03-06T00:16:13.577Z,59.09
2023-03-06T00:18:44.208Z,53.15
2023-03-06T00:21:13.182Z,53.72
2023-03-06T00:23:42.184Z,55.15
2023-03-06T00:26:11.175Z,56.51
2023-03-06T00:28:40.102Z,57.96
2023-03-06T00:31:09.059Z,58.97
2023-03-06T00:33:38.109Z,59.70
2023-03-06T00:36:07.357Z,60.50
2023-03-06T00:38:37.384Z,61.31
2023-03-06T00:41:08.029Z,61.58
2023-03-06T00:43:37.420Z,66.56
2023-03-06T00:46:06.813Z,76.90
2023-03-06T00:48:35.989Z,68.41
2023-03-06T00:51:05.098Z,61.92
2023-03-06T00:53:34.053Z,56.59
2023-03-06T00:56:03.070Z,54.32
2023-03-06T00:58:32.024Z,55.66
2023-03-06T01:01:01.223Z,56.91
2023-03-06T01:03:30.309Z,58.17
2023-03-06T01:05:59.320Z,59.74
2023-03-06T01:08:28.311Z,60.33
2023-03-06T01:10:57.391Z,60.85
2023-03-06T01:13:26.512Z,61.06
2023-03-06T01:15:55.418Z,61.79
2023-03-06T01:18:24.512Z,67.07
2023-03-06T01:20:53.404Z,76.19
2023-03-06T01:23:22.291Z,68.83
2023-03-06T01:25:51.204Z,62.83
2023-03-06T01:28:20.149Z,57.81
2023-03-06T01:30:49.396Z,53.63
2023-03-06T01:33:19.902Z,54.94
2023-03-06T01:35:48.950Z,56.94
2023-03-06T01:38:18.139Z,58.03
2023-03-06T01:40:47.420Z,59.01
2023-03-06T01:43:28.701Z,60.16
2023-03-06T01:46:16.326Z,61.20
2023-03-06T01:48:47.485Z,61.38
2023-03-06T01:51:16.920Z,62.02
2023-03-06T01:53:47.408Z,68.27
2023-03-06T01:56:16.470Z,75.87
2023-03-06T01:58:46.315Z,65.48
2023-03-06T02:01:15.998Z,59.63
2023-03-06T02:03:47.382Z,54.36
2023-03-06T02:06:19.876Z,55.27
2023-03-06T02:08:51.710Z,57.38
2023-03-06T02:11:23.989Z,59.09
2023-03-06T02:13:54.697Z,60.29
2023-03-06T02:16:29.820Z,60.87
2023-03-06T02:19:02.272Z,61.67
2023-03-06T02:21:34.927Z,67.56
2023-03-06T02:24:23.833Z,75.90
2023-03-06T02:26:53.930Z,67.51
2023-03-06T02:29:28.482Z,62.30
2023-03-06T02:31:57.736Z,59.37
2023-03-06T02:34:26.539Z,54.51
2023-03-06T02:37:02.153Z,55.43
2023-03-06T02:39:34.126Z,57.12
2023-03-06T02:42:03.072Z,58.58
2023-03-06T02:44:33.874Z,58.94
2023-03-06T02:47:02.856Z,60.72
2023-03-06T02:49:31.798Z,63.88
2023-03-06T02:52:00.698Z,73.36
2023-03-06T02:54:29.686Z,68.07
2023-03-06T02:56:58.631Z,65.38
2023-03-06T02:59:27.603Z,61.64
2023-03-06T03:01:56.641Z,56.03
2023-03-06T03:04:25.559Z,55.33
2023-03-06T03:06:54.469Z,57.11
2023-03-06T03:09:23.343Z,58.32
2023-03-06T03:11:52.232Z,59.44
2023-03-06T03:14:21.143Z,61.22
2023-03-06T03:16:50.037Z,61.72
2023-03-06T03:19:18.993Z,61.94
2023-03-06T03:21:47.909Z,67.80
2023-03-06T03:24:16.835Z,76.22
2023-03-06T03:26:45.735Z,69.26
2023-03-06T03:29:14.987Z,63.32
2023-03-06T03:31:44.030Z,57.93
2023-03-06T03:34:13.110Z,55.28
2023-03-06T03:36:42.057Z,56.89
2023-03-06T03:39:10.911Z,58.56
2023-03-06T03:41:39.820Z,60.08
2023-03-06T03:44:09.378Z,61.30
2023-03-06T03:46:38.554Z,62.03
2023-03-06T03:49:07.615Z,68.99
2023-03-06T03:51:36.489Z,74.97
2023-03-06T03:54:06.949Z,66.29
2023-03-06T03:56:35.989Z,61.92
2023-03-06T03:59:04.869Z,59.55
2023-03-06T04:01:33.877Z,55.26
2023-03-06T04:04:02.996Z,56.02
2023-03-06T04:06:31.894Z,58.29
2023-03-06T04:09:00.940Z,59.47
2023-03-06T04:11:30.403Z,60.68
2023-03-06T04:13:59.303Z,65.76
2023-03-06T04:16:28.189Z,69.45
2023-03-06T04:18:57.124Z,67.93
2023-03-06T04:21:26.059Z,66.09
2023-03-06T04:23:54.967Z,63.17
2023-03-06T04:26:24.075Z,63.89
2023-03-06T04:28:53.007Z,61.63
2023-03-06T04:31:22.648Z,58.49
2023-03-06T04:33:51.575Z,54.46
2023-03-06T04:36:30.357Z,55.43
2023-03-06T04:39:00.801Z,57.23
2023-03-06T04:41:30.867Z,58.88
2023-03-06T04:43:59.983Z,60.29
2023-03-06T04:46:29.137Z,60.60
2023-03-06T04:48:58.347Z,60.85
2023-03-06T04:51:27.440Z,61.25
2023-03-06T04:53:56.550Z,66.95
2023-03-06T04:56:25.433Z,73.85
2023-03-06T04:58:54.436Z,72.56
2023-03-06T05:01:23.470Z,67.36
2023-03-06T05:03:52.538Z,64.25
2023-03-06T05:06:26.446Z,62.83
2023-03-06T05:08:57.706Z,61.83
2023-03-06T05:11:26.628Z,60.47
2023-03-06T05:13:55.497Z,59.71
2023-03-06T05:16:24.714Z,57.83
2023-03-06T05:18:53.656Z,56.61
2023-03-06T05:21:22.610Z,58.25
2023-03-06T05:23:51.550Z,59.83
2023-03-06T05:26:20.494Z,61.52
2023-03-06T05:28:49.466Z,66.12
2023-03-06T05:31:18.458Z,70.84
2023-03-06T05:33:47.550Z,65.49
2023-03-06T05:36:16.538Z,61.52
2023-03-06T05:38:45.492Z,58.02
2023-03-06T05:41:14.442Z,56.18
2023-03-06T05:43:43.491Z,57.94
2023-03-06T05:46:12.433Z,59.54
2023-03-06T05:48:41.375Z,60.92
2023-03-06T05:51:11.181Z,62.04
2023-03-06T05:53:40.171Z,67.32
2023-03-06T05:56:09.912Z,71.21
2023-03-06T05:58:39.452Z,68.58
2023-03-06T06:01:13.547Z,64.78
2023-03-06T06:03:42.859Z,61.39
2023-03-06T06:06:13.893Z,59.54
2023-03-06T06:08:43.476Z,56.52
2023-03-06T06:11:13.259Z,56.15
2023-03-06T06:13:42.296Z,57.69
2023-03-06T06:16:15.894Z,59.05
2023-03-06T06:18:45.399Z,61.12
2023-03-06T06:21:14.971Z,61.86
2023-03-06T06:23:44.076Z,67.53
2023-03-06T06:26:13.019Z,72.93
2023-03-06T06:28:41.903Z,68.63
2023-03-06T06:31:12.875Z,64.94
2023-03-06T06:33:42.110Z,61.98
2023-03-06T06:36:20.305Z,60.22
2023-03-06T06:38:50.899Z,56.41
2023-03-06T06:41:42.273Z,55.56
2023-03-06T06:44:11.417Z,57.25
2023-03-06T06:47:20.804Z,60.12
2023-03-06T06:49:29.862Z,61.28
2023-03-06T06:52:01.775Z,65.73
2023-03-06T06:54:30.712Z,71.18
2023-03-06T06:56:59.706Z,68.04
2023-03-06T06:59:28.578Z,63.87
2023-03-06T07:01:57.571Z,62.26
2023-03-06T07:04:26.491Z,61.03
2023-03-06T07:06:57.290Z,56.78
2023-03-06T07:09:26.783Z,56.78
2023-03-06T07:11:56.162Z,59.06
2023-03-06T07:14:25.233Z,61.65
2023-03-06T07:16:54.136Z,67.57
2023-03-06T07:19:23.069Z,68.11
2023-03-06T07:21:52.038Z,63.78
2023-03-06T07:24:20.986Z,61.20
2023-03-06T07:26:50.041Z,59.04
2023-03-06T07:29:19.372Z,56.53
2023-03-06T07:31:48.406Z,57.68
2023-03-06T07:34:17.266Z,59.73
2023-03-06T07:36:46.421Z,61.40
2023-03-06T07:39:15.511Z,66.34
2023-03-06T07:41:44.679Z,69.74
2023-03-06T07:44:13.728Z,65.41
2023-03-06T07:46:42.641Z,61.70
2023-03-06T07:49:11.758Z,59.28
2023-03-06T07:51:40.773Z,57.17
2023-03-06T07:54:10.030Z,57.94
2023-03-06T07:56:38.981Z,59.97
2023-03-06T07:59:07.841Z,61.39
2023-03-06T08:01:39.398Z,65.86
2023-03-06T08:04:08.365Z,70.00
2023-03-06T08:06:37.301Z,66.09
2023-03-06T08:09:06.334Z,63.69
2023-03-06T08:11:35.248Z,59.57
2023-03-06T08:14:04.249Z,54.75
2023-03-06T08:16:33.211Z,55.51
2023-03-06T08:19:02.146Z,58.14
2023-03-06T08:21:31.119Z,60.53
2023-03-06T08:24:00.145Z,63.64
2023-03-06T08:26:31.570Z,69.94
2023-03-06T08:29:02.561Z,64.17
2023-03-06T08:31:38.514Z,58.35
2023-03-06T08:34:10.134Z,53.99
2023-03-06T08:36:39.218Z,55.76
2023-03-06T08:39:08.539Z,58.50
2023-03-06T08:41:38.445Z,59.90
2023-03-06T08:44:07.438Z,61.57
2023-03-06T08:46:37.359Z,67.85
2023-03-06T08:49:06.356Z,67.35
2023-03-06T08:51:36.068Z,62.02
2023-03-06T08:54:05.241Z,56.02
2023-03-06T08:56:34.614Z,54.66
2023-03-06T08:59:06.084Z,56.54
2023-03-06T09:01:38.027Z,58.63
2023-03-06T09:04:09.925Z,60.28
2023-03-06T09:06:42.214Z,61.44
2023-03-06T09:09:12.735Z,66.77
2023-03-06T09:11:41.756Z,68.97
2023-03-06T09:14:10.646Z,64.27
2023-03-06T09:16:40.100Z,60.19
2023-03-06T09:19:09.049Z,55.55
2023-03-06T09:21:38.231Z,54.78
2023-03-06T09:24:07.317Z,56.09
2023-03-06T09:26:45.479Z,58.91
2023-03-06T09:29:16.628Z,60.64
2023-03-06T09:31:46.013Z,61.67
2023-03-06T09:34:15.049Z,68.74
2023-03-06T09:36:56.401Z,70.54
2023-03-06T09:39:27.460Z,64.51
2023-03-06T09:42:00.295Z,59.57
2023-03-06T09:44:32.477Z,54.95
2023-03-06T09:47:20.418Z,55.61
2023-03-06T09:49:58.171Z,57.69
2023-03-06T09:52:30.135Z,59.28
2023-03-06T09:55:13.028Z,60.57
2023-03-06T09:57:53.563Z,60.85
2023-03-06T10:00:28.731Z,61.07
2023-03-06T10:03:16.045Z,66.40
2023-03-06T10:05:53.323Z,69.03
2023-03-06T10:08:35.841Z,63.93
2023-03-06T10:11:11.190Z,58.19
2023-03-06T10:13:48.132Z,54.70
2023-03-06T10:16:29.544Z,56.17
2023-03-06T10:19:03.230Z,56.96
2023-03-06T10:21:38.486Z,59.12
2023-03-06T10:24:42.897Z,59.41
2023-03-06T10:27:30.164Z,59.86
2023-03-06T10:30:04.281Z,66.84
2023-03-06T10:32:49.025Z,68.73
2023-03-06T10:35:30.488Z,59.37
2023-03-06T10:38:26.663Z,53.40
2023-03-06T10:41:01.639Z,54.72
2023-03-06T10:43:30.557Z,56.76
2023-03-06T10:45:59.704Z,57.98
2023-03-06T10:48:31.066Z,58.94
2023-03-06T10:51:25.835Z,60.17
2023-03-06T10:53:59.167Z,61.32
2023-03-06T10:56:40.831Z,68.76
2023-03-06T10:59:12.745Z,66.48
2023-03-06T11:01:49.644Z,57.57
2023-03-06T11:04:35.318Z,52.61
2023-03-06T11:07:18.077Z,53.96
2023-03-06T11:09:59.138Z,55.63
2023-03-06T11:12:34.967Z,56.56
2023-03-06T11:15:06.685Z,59.04
2023-03-06T11:17:50.464Z,60.62
2023-03-06T11:20:21.607Z,67.37
2023-03-06T11:23:04.921Z,67.37
2023-03-06T11:25:43.848Z,60.13
2023-03-06T11:28:37.618Z,55.31
2023-03-06T11:31:18.081Z,55.54
2023-03-06T11:33:54.044Z,57.76
2023-03-06T11:36:53.505Z,58.98
2023-03-06T11:39:34.253Z,59.97
2023-03-06T11:42:17.151Z,67.64
2023-03-06T11:45:05.064Z,68.18
2023-03-06T11:47:42.340Z,60.90
2023-03-06T11:50:48.852Z,54.71
2023-03-06T11:53:21.530Z,54.14
2023-03-06T11:55:56.493Z,56.50
2023-03-06T11:58:31.723Z,57.25
2023-03-06T12:01:21.197Z,60.03
2023-03-06T12:04:02.738Z,60.75
2023-03-06T12:06:58.373Z,61.60
2023-03-06T12:09:55.076Z,71.82
2023-03-06T12:12:50.674Z,70.24
2023-03-06T12:15:30.786Z,62.27
2023-03-06T12:18:12.056Z,55.23
2023-03-06T12:20:57.215Z,54.32
2023-03-06T12:23:35.990Z,57.19
2023-03-06T12:26:30.949Z,57.83
2023-03-06T12:29:10.773Z,59.85
2023-03-06T12:31:42.400Z,61.83
2023-03-06T12:34:14.010Z,67.72
2023-03-06T12:37:25.161Z,69.61
2023-03-06T12:40:01.182Z,62.72
2023-03-06T12:42:55.961Z,56.22
2023-03-06T12:45:32.588Z,54.49
2023-03-06T12:48:02.162Z,56.68
2023-03-06T12:50:37.097Z,59.23
2023-03-06T12:53:12.545Z,59.32
2023-03-06T12:55:47.247Z,60.91
2023-03-06T12:58:28.669Z,65.47
2023-03-06T13:01:13.621Z,71.24
2023-03-06T13:04:24.016Z,62.27
2023-03-06T13:07:17.370Z,55.64
2023-03-06T13:10:01.723Z,55.62
2023-03-06T13:12:58.515Z,57.88
2023-03-06T13:15:38.122Z,59.80
2023-03-06T13:18:22.588Z,65.36
2023-03-06T13:20:53.919Z,67.06
2023-03-06T13:23:39.111Z,63.36
2023-03-06T13:26:26.731Z,60.12
2023-03-06T13:28:57.942Z,55.53
2023-03-06T13:31:36.661Z,55.78
2023-03-06T13:34:31.286Z,58.44
2023-03-06T13:37:19.479Z,59.59
2023-03-06T13:39:58.626Z,61.53
2023-03-06T13:42:38.191Z,67.43
2023-03-06T13:45:23.972Z,66.51
2023-03-06T13:50:46.603Z,57.89
2023-03-06T13:53:26.097Z,55.59
2023-03-06T13:56:50.821Z,55.99
2023-03-06T13:59:37.921Z,58.86
2023-03-06T14:02:53.720Z,60.46
2023-03-06T14:05:23.685Z,61.22
2023-03-06T14:08:10.762Z,68.72
2023-03-06T14:10:40.349Z,68.50
2023-03-06T14:13:19.879Z,64.06
2023-03-06T14:15:54.221Z,60.15
2023-03-06T14:18:28.057Z,55.89
2023-03-06T14:21:02.304Z,55.95
2023-03-06T14:23:35.793Z,57.07
2023-03-06T14:26:07.541Z,59.20
2023-03-06T14:28:36.827Z,60.82
2023-03-06T14:31:07.030Z,61.19
2023-03-06T14:33:56.637Z,66.50
2023-03-06T14:36:34.746Z,70.95
2023-03-06T14:39:12.641Z,66.39
2023-03-06T14:41:41.722Z,62.49
2023-03-06T14:44:20.175Z,60.54
2023-03-06T14:46:50.488Z,56.96
2023-03-06T14:49:21.432Z,56.20
2023-03-06T14:51:55.914Z,57.98
2023-03-06T14:54:29.583Z,59.22
2023-03-06T14:57:06.089Z,59.88
2023-03-06T14:59:50.577Z,60.18
2023-03-06T15:02:26.692Z,61.72
2023-03-06T15:05:03.502Z,70.30
2023-03-06T15:07:33.547Z,70.78
2023-03-06T15:10:02.544Z,65.70
2023-03-06T15:12:35.117Z,62.41
2023-03-06T15:15:06.869Z,59.91
2023-03-06T15:17:44.133Z,56.11
2023-03-06T15:20:38.209Z,56.20
2023-03-06T15:23:20.885Z,57.42
2023-03-06T15:26:14.163Z,59.46
2023-03-06T15:28:43.117Z,61.66
2023-03-06T15:31:28.182Z,67.33
2023-03-06T15:34:02.434Z,69.02
2023-03-06T15:36:34.409Z,65.02
2023-03-06T15:39:35.209Z,62.42
2023-03-06T15:42:23.465Z,61.25
2023-03-06T15:45:00.275Z,58.22
2023-03-06T15:47:29.148Z,55.54
2023-03-06T15:49:58.005Z,57.05
2023-03-06T15:52:27.009Z,59.70
2023-03-06T15:54:55.952Z,60.80
2023-03-06T15:57:29.463Z,61.55
2023-03-06T16:00:00.651Z,67.96
2023-03-06T16:02:29.565Z,70.58
2023-03-06T16:05:02.489Z,64.90
2023-03-06T16:07:31.434Z,62.38
2023-03-06T16:10:00.293Z,60.60
2023-03-06T16:12:30.689Z,56.20
2023-03-06T16:15:01.688Z,56.90
2023-03-06T16:17:30.637Z,59.12
2023-03-06T16:19:59.498Z,60.48
2023-03-06T16:22:28.430Z,62.08
2023-03-06T16:24:57.364Z,68.11
2023-03-06T16:27:26.289Z,68.84
2023-03-06T16:29:55.228Z,65.72
2023-03-06T16:32:28.352Z,63.09
2023-03-06T16:34:57.674Z,61.77
2023-03-06T16:37:26.553Z,60.97
2023-03-06T16:39:55.444Z,59.92
2023-03-06T16:42:24.345Z,60.10
2023-03-06T16:44:53.350Z,55.16
2023-03-06T16:47:22.262Z,54.57
2023-03-06T16:50:01.974Z,56.43
2023-03-06T16:52:31.135Z,58.30
2023-03-06T16:55:00.128Z,59.72
2023-03-06T16:57:35.671Z,61.39
2023-03-06T17:00:20.835Z,69.19
2023-03-06T17:03:08.217Z,67.67
2023-03-06T17:05:45.429Z,60.48
2023-03-06T17:08:14.350Z,55.63
2023-03-06T17:10:43.299Z,55.42
2023-03-06T17:13:12.614Z,57.59
2023-03-06T17:15:41.956Z,59.43
2023-03-06T17:18:11.117Z,60.70
2023-03-06T17:20:40.927Z,62.05
2023-03-06T17:23:10.232Z,69.83
2023-03-06T17:25:39.087Z,69.59
2023-03-06T17:28:08.222Z,62.17
2023-03-06T17:30:37.191Z,56.48
2023-03-06T17:33:06.318Z,55.69
2023-03-06T17:35:36.602Z,57.49
2023-03-06T17:38:05.546Z,59.26
2023-03-06T17:40:34.742Z,60.65
2023-03-06T17:43:03.995Z,62.06
2023-03-06T17:45:36.338Z,70.05
2023-03-06T17:48:05.332Z,68.55
2023-03-06T17:50:34.246Z,60.75
2023-03-06T17:53:03.212Z,53.93
2023-03-06T17:55:32.114Z,54.41
2023-03-06T17:58:01.128Z,56.92
2023-03-06T18:00:30.026Z,58.46
2023-03-06T18:02:58.951Z,59.96
2023-03-06T18:05:27.831Z,61.26
2023-03-06T18:07:56.828Z,61.99
2023-03-06T18:10:25.826Z,70.72
2023-03-06T18:12:56.755Z,70.31
2023-03-06T18:15:25.919Z,62.78
2023-03-06T18:17:56.796Z,56.28
2023-03-06T18:20:26.166Z,53.91
2023-03-06T18:22:55.125Z,56.34
2023-03-06T18:25:24.076Z,58.72
2023-03-06T18:27:52.972Z,60.75
2023-03-06T18:30:21.961Z,61.57
2023-03-06T18:32:50.859Z,61.89
2023-03-06T18:35:19.926Z,71.50
2023-03-06T18:37:49.044Z,69.36
2023-03-06T18:40:18.273Z,60.09
2023-03-06T18:42:48.192Z,53.43
2023-03-06T18:45:17.076Z,54.32
2023-03-06T18:47:46.426Z,56.71
2023-03-06T18:50:17.690Z,58.33
2023-03-06T18:52:46.815Z,59.45
2023-03-06T18:55:15.921Z,60.49
2023-03-06T18:57:44.792Z,61.31
2023-03-06T19:00:14.084Z,62.16
2023-03-06T19:02:42.967Z,71.19
2023-03-06T19:05:12.266Z,71.37
2023-03-06T19:07:41.172Z,62.53
2023-03-06T19:10:10.884Z,56.65
2023-03-06T19:12:39.906Z,54.30
2023-03-06T19:15:09.273Z,56.13
2023-03-06T19:17:38.272Z,58.18
2023-03-06T19:20:07.948Z,59.32
2023-03-06T19:22:37.290Z,60.48
2023-03-06T19:25:07.906Z,61.67
2023-03-06T19:27:38.485Z,68.53
2023-03-06T19:30:08.558Z,73.37
2023-03-06T19:32:37.841Z,63.91
2023-03-06T19:35:07.033Z,57.21
2023-03-06T19:37:36.612Z,54.45
2023-03-06T19:40:06.610Z,56.19
2023-03-06T19:42:36.109Z,58.18
2023-03-06T19:45:06.629Z,59.76
2023-03-06T19:47:36.063Z,61.36
2023-03-06T19:50:05.378Z,66.80
2023-03-06T19:52:37.137Z,72.71
2023-03-06T19:55:06.889Z,64.18
2023-03-06T19:57:36.051Z,56.63
2023-03-06T20:00:05.744Z,53.38
2023-03-06T20:02:35.806Z,55.04
2023-03-06T20:05:15.784Z,56.86
2023-03-06T20:08:01.324Z,58.63
2023-03-06T20:10:30.245Z,60.05
2023-03-06T20:12:59.144Z,61.13
2023-03-06T20:15:29.009Z,61.97
2023-03-06T20:17:57.964Z,68.35
2023-03-06T20:20:27.001Z,72.65
2023-03-06T20:22:56.179Z,63.45
2023-03-06T20:25:32.533Z,54.93
2023-03-06T20:28:07.814Z,53.73
2023-03-06T20:30:45.996Z,55.88
2023-03-06T20:33:15.515Z,57.33
2023-03-06T20:35:44.791Z,59.28
2023-03-06T20:38:13.993Z,60.70
2023-03-06T20:40:43.234Z,61.76
2023-03-06T20:43:12.173Z,66.74
2023-03-06T20:45:41.123Z,73.97
2023-03-06T20:48:10.054Z,65.06
2023-03-06T20:50:38.956Z,58.29
2023-03-06T20:53:08.007Z,53.91
2023-03-06T20:55:37.729Z,55.24
2023-03-06T20:58:06.626Z,57.45
2023-03-06T21:00:41.544Z,59.36
2023-03-06T21:03:10.412Z,60.14
2023-03-06T21:05:39.282Z,60.34
2023-03-06T21:08:08.185Z,61.40
2023-03-06T21:10:38.035Z,67.54
2023-03-06T21:13:06.977Z,72.87
2023-03-06T21:15:42.227Z,66.22
2023-03-06T21:18:11.331Z,60.46
2023-03-06T21:20:41.205Z,54.81
2023-03-06T21:23:10.356Z,54.16
2023-03-06T21:25:50.606Z,55.52
2023-03-06T21:28:19.746Z,57.39
2023-03-06T21:30:48.655Z,59.35
2023-03-06T21:33:17.521Z,60.44
2023-03-06T21:35:47.470Z,60.97
2023-03-06T21:38:16.794Z,61.46
2023-03-06T21:40:46.067Z,62.36
2023-03-06T21:43:17.585Z,73.43
2023-03-06T21:45:48.041Z,72.68
2023-03-06T21:48:16.986Z,64.20
2023-03-06T21:50:45.944Z,60.55
2023-03-06T21:53:14.799Z,55.85
2023-03-06T21:55:43.965Z,54.91
2023-03-06T21:58:12.824Z,57.16
2023-03-06T22:00:41.787Z,58.58
2023-03-06T22:03:10.784Z,59.91
2023-03-06T22:05:39.856Z,61.73
2023-03-06T22:08:08.824Z,67.35
2023-03-06T22:10:41.563Z,73.76
2023-03-06T22:13:10.712Z,67.67
2023-03-06T22:15:39.622Z,62.42
2023-03-06T22:18:15.778Z,60.07
2023-03-06T22:20:45.290Z,54.28
2023-03-06T22:23:14.546Z,54.56
2023-03-06T22:25:43.491Z,56.73
2023-03-06T22:28:13.293Z,58.59
2023-03-06T22:30:42.166Z,60.42
2023-03-06T22:33:11.118Z,61.31
2023-03-06T22:35:40.181Z,61.70
2023-03-06T22:38:09.377Z,67.28
2023-03-06T22:40:38.289Z,76.60
2023-03-06T22:43:07.133Z,68.80
2023-03-06T22:45:36.135Z,60.97
2023-03-06T22:48:11.142Z,54.55
2023-03-06T22:50:40.300Z,53.91
2023-03-06T22:53:09.142Z,56.19
2023-03-06T22:55:38.089Z,58.57
2023-03-06T22:58:07.098Z,59.79
2023-03-06T23:00:36.089Z,61.27
2023-03-06T23:03:05.145Z,61.81
2023-03-06T23:05:34.016Z,68.94
2023-03-06T23:08:02.908Z,74.15
2023-03-06T23:10:31.776Z,64.43
2023-03-06T23:13:00.659Z,56.09
2023-03-06T23:15:29.685Z,53.39
2023-03-06T23:17:58.632Z,55.20
2023-03-06T23:20:27.518Z,56.62
2023-03-06T23:22:56.409Z,58.61
2023-03-06T23:25:25.315Z,60.22
2023-03-06T23:27:55.783Z,60.82
2023-03-06T23:30:24.694Z,64.11
2023-03-06T23:32:53.652Z,67.88
2023-03-06T23:35:22.619Z,67.29
2023-03-06T23:37:51.779Z,64.49
2023-03-06T23:40:20.683Z,64.84
2023-03-06T23:42:49.562Z,62.17
2023-03-06T23:45:18.467Z,60.74
2023-03-06T23:47:47.580Z,55.90
2023-03-06T23:50:16.844Z,54.94
2023-03-06T23:52:45.885Z,58.21
2023-03-06T23:55:14.834Z,62.66
2023-03-06T23:57:43.733Z,71.40
